EYVI/VNO METAR and TAF weather

Enter ICAO airport designator
Station Type Date Time Source
EYVI METAR 2020/04/09 20:20 UTC NOAA

EYVI 092020Z 36012KT 9999 SCT027CB BKN065 07/M01 Q1016 NOSIG


Station Type Date Time Source
EYVI Decoded METAR 2020/04/09 20:20 UTC NOAA

Vilnius, Lithuania (EYVI) 54-38N 025-06E 156M
Apr 09, 2020 - 04:20 PM EDT / 2020.04.09 2020 UTC
Wind: from the N (360 degrees) at 14 MPH (12 KT):0
Visibility: greater than 7 mile(s):0
Sky conditions: mostly cloudy
Weather: Cumulonimbus clouds observed
Temperature: 44 F (7 C)
Dew Point: 30 F (-1 C)
Relative Humidity: 56%
Pressure (altimeter): 30.00 in. Hg (1016 hPa)
ob: EYVI 092020Z 36012KT 9999 SCT027CB BKN065 07/M01 Q1016 NOSIG
cycle: 20

Station Type Date Time Source
EYVI TAF 2020/04/09 18:03 UTC NOAA

TAF EYVI 091700Z 0918/1018 34010KT 9000 SCT030
TEMPO 0918/0921 3000 SHRA SCT005 BKN015CB

Example: see airport list